Terminal Aerodrome Forecast
Issued by NWS Memphis, TN

Home | Current Version | Previous Version | Text Only | Print | Product List | Glossary On
Versions: 1 2 3 4 5 6 7 8 9 10 11 12 13 14 15 16 17 18 19 20
000
FTUS44 KMEG 301120
TAFJBR
TAF
KJBR 301120Z 3012/3112 19014G21KT 6SM -SHRA SCT030 BKN050
      WS020/21050KT
     FM301400 20017G25KT P6SM VCTS SCT025 BKN040CB
     FM301800 24015G23KT P6SM BKN040
     FM310000 26008KT P6SM BKN035=

USA.gov is the U.S. government's official web portal to all federal, state and local government web resources and services.